Shakhty, Russia
Current Conditions -  °F | °C
As of 5:00 AM on Monday 22 Dec 2014 (Local Time) from URRR Reporting Station
Rain Showers Rain Showers  
Wind Chill: 29°   Ceiling: 700
Heat Index: 36°   Visibility: 4mi
Dew Point: 34°   Wind: 9mph
Humidity: 93%   Direction: 300°WNW
Pressure: 29.83"   Gusts: 16mph
Location:  47.71°N, 40.21°E
Report Text: URRR 220200Z 30004G07MPS 270V350 6000 -SHRA BKN007 SCT033CBOVC100 02/01 Q1010 04290041 NOSIG
Loading
Personal Weather Stations






























Interactive Weather Map New forecast layout! Learn more

10-Day Weather Forecast

Advertisements
Track Severe Weather on mobile